首页
METAR-TAF:

METAR-TAF

机场 :

马德普拉塔, 阿根廷

纬度: 37-56S, 经度: 057-35W, 海拔: 18米

当前天气观测

该预报发布于12分钟前的21:00 UTC
风速11节,风向西北
温度 12°C
湿度 71%
气压 1019 hPa
能见度10公里或以上
1500米以下无云,无积雨云

METAR: SAZM 182100Z 32011KT CAVOK 12/07 Q1019

时间: 18:12 (21:12 UTC)

预报

该预报发布于4小时和12分钟前的17:00 UTC
预报有效从18日的 18点(UTC)到 19日的 18点(UTC)
风速15节,风向西北,有时为20节阵风
能见度10公里或以上
1500米以下无云,无积雨云
成为
从 18日的 20点(UTC)到 18日的 22点(UTC)
风速20节,风向西北,有时为30节阵风
成为
从 19日的 13点(UTC)到 19日的 15点(UTC)
风速15节,风向

TAF: SAZM 181700Z 1818/1918 32015G20KT CAVOK TX16/1918Z TN06/1910Z BECMG 1820/1822 32020G30KT BECMG 1913/1915 35015KT

超过4000个机场的气象观测和天气预报(METAR&TAF报告)。

可查询的气象台以黄色和红色小点在地图上表示。

将鼠标移到小点上方,可查看气象台名称。

然后点击查看天气观测和预报。

如需切换地图:点击带黑十字的绿色按钮放大地图;点击带横线的绿色按钮缩小地图;或者点击绿色箭头查看邻近地区的地图。


METAR-TAF: